sensor_id;sensor_type;location;lat;lon;timestamp;pressure;altitude;pressure_sealevel;temperature;humidity
21594;BME280;10959;51.328;7.322;2023-05-27T00:02:13;75277.91;;;-147.06;50.92
21594;BME280;10959;51.328;7.322;2023-05-27T00:04:40;75282.03;;;-147.06;51.13
21594;BME280;10959;51.328;7.322;2023-05-27T00:07:08;75298.41;;;-147.06;51.32
21594;BME280;10959;51.328;7.322;2023-05-27T00:09:34;75302.50;;;-147.06;51.55
21594;BME280;10959;51.328;7.322;2023-05-27T00:12:01;75310.72;;;-147.06;51.50
21594;BME280;10959;51.328;7.322;2023-05-27T00:14:27;75318.91;;;-147.06;51.78
21594;BME280;10959;51.328;7.322;2023-05-27T00:16:53;75306.59;;;-147.06;51.43
21594;BME280;10959;51.328;7.322;2023-05-27T00:19:20;75298.41;;;-147.06;51.40
21594;BME280;10959;51.328;7.322;2023-05-27T00:21:47;75292.25;;;-147.06;51.20
21594;BME280;10959;51.328;7.322;2023-05-27T00:24:14;75288.16;;;-147.06;51.06
21594;BME280;10959;51.328;7.322;2023-05-27T00:26:41;75290.22;;;-147.06;50.97
21594;BME280;10959;51.328;7.322;2023-05-27T00:29:08;75294.31;;;-147.06;51.11
21594;BME280;10959;51.328;7.322;2023-05-27T00:31:34;75294.31;;;-147.06;51.03
21594;BME280;10959;51.328;7.322;2023-05-27T00:34:01;75282.03;;;-147.06;50.67
21594;BME280;10959;51.328;7.322;2023-05-27T00:36:27;75277.91;;;-147.06;50.55
21594;BME280;10959;51.328;7.322;2023-05-27T00:38:53;75277.91;;;-147.06;50.48
21594;BME280;10959;51.328;7.322;2023-05-27T00:41:22;75284.06;;;-147.06;50.42
21594;BME280;10959;51.328;7.322;2023-05-27T00:43:49;75273.81;;;-147.06;50.32
21594;BME280;10959;51.328;7.322;2023-05-27T00:46:15;75265.63;;;-147.06;50.00
21594;BME280;10959;51.328;7.322;2023-05-27T00:48:42;75273.81;;;-147.06;49.92
21594;BME280;10959;51.328;7.322;2023-05-27T00:51:08;75269.72;;;-147.06;50.06
21594;BME280;10959;51.328;7.322;2023-05-27T00:53:38;75277.91;;;-147.06;50.02
21594;BME280;10959;51.328;7.322;2023-05-27T00:56:05;75275.88;;;-147.06;49.84
21594;BME280;10959;51.328;7.322;2023-05-27T00:58:34;75269.72;;;-147.06;49.65
21594;BME280;10959;51.328;7.322;2023-05-27T01:01:01;75286.13;;;-147.06;50.12
21594;BME280;10959;51.328;7.322;2023-05-27T01:03:28;75294.31;;;-147.06;50.51
21594;BME280;10959;51.328;7.322;2023-05-27T01:06:08;75331.19;;;-147.06;51.18
21594;BME280;10959;51.328;7.322;2023-05-27T01:08:45;75372.19;;;-147.06;52.07
21594;BME280;10959;51.328;7.322;2023-05-27T01:11:18;75396.78;;;-147.06;52.89
21594;BME280;10959;51.328;7.322;2023-05-27T01:13:51;75419.31;;;-147.06;53.13
21594;BME280;10959;51.328;7.322;2023-05-27T01:16:18;75413.16;;;-147.06;53.55
21594;BME280;10959;51.328;7.322;2023-05-27T01:18:47;75431.63;;;-147.06;53.97
21594;BME280;10959;51.328;7.322;2023-05-27T01:21:16;75441.84;;;-147.06;54.26
21594;BME280;10959;51.328;7.322;2023-05-27T01:23:47;75450.06;;;-147.06;54.47
21594;BME280;10959;51.328;7.322;2023-05-27T01:26:14;75443.91;;;-147.06;54.43
21594;BME280;10959;51.328;7.322;2023-05-27T01:28:40;75427.50;;;-147.06;54.06
21594;BME280;10959;51.328;7.322;2023-05-27T01:31:12;75429.56;;;-147.06;54.11
21594;BME280;10959;51.328;7.322;2023-05-27T01:33:42;75417.28;;;-147.06;53.80
21594;BME280;10959;51.328;7.322;2023-05-27T01:36:18;75427.50;;;-147.06;53.69
21594;BME280;10959;51.328;7.322;2023-05-27T01:38:48;75409.06;;;-147.06;53.69
21594;BME280;10959;51.328;7.322;2023-05-27T01:41:15;75427.50;;;-147.06;54.07
21594;BME280;10959;51.328;7.322;2023-05-27T01:43:42;75425.47;;;-147.06;54.13
21594;BME280;10959;51.328;7.322;2023-05-27T01:46:09;75437.75;;;-147.06;54.32
21594;BME280;10959;51.328;7.322;2023-05-27T01:48:36;75441.84;;;-147.06;54.11
21594;BME280;10959;51.328;7.322;2023-05-27T01:51:02;75454.16;;;-147.06;54.79
21594;BME280;10959;51.328;7.322;2023-05-27T01:53:30;75458.25;;;-147.06;54.75
21594;BME280;10959;51.328;7.322;2023-05-27T01:55:57;75445.97;;;-147.06;54.46
21594;BME280;10959;51.328;7.322;2023-05-27T01:58:24;75450.06;;;-147.06;54.44
21594;BME280;10959;51.328;7.322;2023-05-27T02:00:50;75437.75;;;-147.06;54.37
21594;BME280;10959;51.328;7.322;2023-05-27T02:03:17;75454.16;;;-147.06;54.93
21594;BME280;10959;51.328;7.322;2023-05-27T02:05:43;75462.34;;;-147.06;54.97
21594;BME280;10959;51.328;7.322;2023-05-27T02:08:10;75462.34;;;-147.06;54.71
21594;BME280;10959;51.328;7.322;2023-05-27T02:10:36;75466.44;;;-147.06;54.98
21594;BME280;10959;51.328;7.322;2023-05-27T02:13:04;75458.25;;;-147.06;55.12
21594;BME280;10959;51.328;7.322;2023-05-27T02:15:31;75466.44;;;-147.06;55.19
21594;BME280;10959;51.328;7.322;2023-05-27T02:17:57;75454.16;;;-147.06;54.85
21594;BME280;10959;51.328;7.322;2023-05-27T02:20:24;75452.09;;;-147.06;55.03
21594;BME280;10959;51.328;7.322;2023-05-27T02:22:50;75462.34;;;-147.06;55.00
21594;BME280;10959;51.328;7.322;2023-05-27T02:25:17;75466.44;;;-147.06;55.10
21594;BME280;10959;51.328;7.322;2023-05-27T02:27:43;75454.16;;;-147.06;55.04
21594;BME280;10959;51.328;7.322;2023-05-27T02:30:15;75470.56;;;-147.06;54.98
21594;BME280;10959;51.328;7.322;2023-05-27T02:32:42;75466.44;;;-147.06;55.08
21594;BME280;10959;51.328;7.322;2023-05-27T02:35:13;75462.34;;;-147.06;54.82
21594;BME280;10959;51.328;7.322;2023-05-27T02:37:40;75472.59;;;-147.06;55.29
21594;BME280;10959;51.328;7.322;2023-05-27T02:40:08;75470.56;;;-147.06;55.14
21594;BME280;10959;51.328;7.322;2023-05-27T02:42:36;75495.16;;;-147.06;55.79
21594;BME280;10959;51.328;7.322;2023-05-27T02:45:03;75507.44;;;-147.06;56.01
21594;BME280;10959;51.328;7.322;2023-05-27T02:47:31;75511.53;;;-147.06;56.14
21594;BME280;10959;51.328;7.322;2023-05-27T02:49:57;75499.25;;;-147.06;56.01
21594;BME280;10959;51.328;7.322;2023-05-27T02:52:23;75501.28;;;-147.06;55.98
21594;BME280;10959;51.328;7.322;2023-05-27T02:54:50;75521.78;;;-147.06;56.21
21594;BME280;10959;51.328;7.322;2023-05-27T02:57:16;75529.97;;;-147.06;56.64
21594;BME280;10959;51.328;7.322;2023-05-27T02:59:44;75540.22;;;-147.06;56.70
21594;BME280;10959;51.328;7.322;2023-05-27T03:02:10;75546.38;;;-147.06;57.19
21594;BME280;10959;51.328;7.322;2023-05-27T03:04:38;75548.44;;;-147.06;57.31
21594;BME280;10959;51.328;7.322;2023-05-27T03:07:05;75536.13;;;-147.06;57.29
21594;BME280;10959;51.328;7.322;2023-05-27T03:09:32;75532.03;;;-147.06;56.79
21594;BME280;10959;51.328;7.322;2023-05-27T03:11:58;75527.94;;;-147.06;56.82
21594;BME280;10959;51.328;7.322;2023-05-27T03:14:25;75532.03;;;-147.06;57.00
21594;BME280;10959;51.328;7.322;2023-05-27T03:16:51;75532.03;;;-147.06;57.19
21594;BME280;10959;51.328;7.322;2023-05-27T03:19:18;75534.09;;;-147.06;57.10
21594;BME280;10959;51.328;7.322;2023-05-27T03:21:46;75527.94;;;-147.06;56.90
21594;BME280;10959;51.328;7.322;2023-05-27T03:24:13;75532.03;;;-147.06;56.96
21594;BME280;10959;51.328;7.322;2023-05-27T03:26:39;75540.22;;;-147.06;57.42
21594;BME280;10959;51.328;7.322;2023-05-27T03:29:06;75527.94;;;-147.06;56.95
21594;BME280;10959;51.328;7.322;2023-05-27T03:31:32;75529.97;;;-147.06;56.99
21594;BME280;10959;51.328;7.322;2023-05-27T03:33:58;75527.94;;;-147.06;56.84
21594;BME280;10959;51.328;7.322;2023-05-27T03:36:25;75519.75;;;-147.06;56.64
21594;BME280;10959;51.328;7.322;2023-05-27T03:38:53;75517.69;;;-147.06;56.32
21594;BME280;10959;51.328;7.322;2023-05-27T03:41:19;75523.84;;;-147.06;56.69
21594;BME280;10959;51.328;7.322;2023-05-27T03:43:46;75527.94;;;-147.06;56.81
21594;BME280;10959;51.328;7.322;2023-05-27T03:46:12;75532.03;;;-147.06;56.55
21594;BME280;10959;51.328;7.322;2023-05-27T03:48:39;75523.84;;;-147.06;56.79
21594;BME280;10959;51.328;7.322;2023-05-27T03:51:05;75507.44;;;-147.06;56.55
21594;BME280;10959;51.328;7.322;2023-05-27T03:53:32;75507.44;;;-147.06;56.29
21594;BME280;10959;51.328;7.322;2023-05-27T03:55:59;75511.53;;;-147.06;56.56
21594;BME280;10959;51.328;7.322;2023-05-27T03:58:26;75503.34;;;-147.06;56.48
21594;BME280;10959;51.328;7.322;2023-05-27T04:00:52;75499.25;;;-147.06;56.31
21594;BME280;10959;51.328;7.322;2023-05-27T04:03:20;75507.44;;;-147.06;57.05
21594;BME280;10959;51.328;7.322;2023-05-27T04:05:47;75527.94;;;-147.06;57.33
21594;BME280;10959;51.328;7.322;2023-05-27T04:08:13;75519.75;;;-147.06;57.19
21594;BME280;10959;51.328;7.322;2023-05-27T04:10:40;75511.53;;;-147.06;57.31
21594;BME280;10959;51.328;7.322;2023-05-27T04:13:08;75499.25;;;-147.06;56.94
21594;BME280;10959;51.328;7.322;2023-05-27T04:15:34;75495.16;;;-147.06;56.86
21594;BME280;10959;51.328;7.322;2023-05-27T04:18:01;75495.16;;;-147.06;56.55
21594;BME280;10959;51.328;7.322;2023-05-27T04:20:34;75499.25;;;-147.06;56.40
21594;BME280;10959;51.328;7.322;2023-05-27T04:23:01;75468.50;;;-147.06;56.46
21594;BME280;10959;51.328;7.322;2023-05-27T04:25:28;75460.31;;;-147.06;56.07
21594;BME280;10959;51.328;7.322;2023-05-27T04:27:54;75458.25;;;-147.06;56.41
21594;BME280;10959;51.328;7.322;2023-05-27T04:30:23;75454.16;;;-147.06;56.45
21594;BME280;10959;51.328;7.322;2023-05-27T04:32:51;75458.25;;;-147.06;56.44
21594;BME280;10959;51.328;7.322;2023-05-27T04:35:17;75452.09;;;-147.06;56.43
21594;BME280;10959;51.328;7.322;2023-05-27T04:37:44;75437.75;;;-147.06;56.21
21594;BME280;10959;51.328;7.322;2023-05-27T04:40:13;75431.63;;;-147.06;55.97
21594;BME280;10959;51.328;7.322;2023-05-27T04:42:40;75419.31;;;-147.06;56.03
21594;BME280;10959;51.328;7.322;2023-05-27T04:45:09;75419.31;;;-147.06;55.95
21594;BME280;10959;51.328;7.322;2023-05-27T04:47:38;75429.56;;;-147.06;56.16
21594;BME280;10959;51.328;7.322;2023-05-27T04:50:07;75421.38;;;-147.06;56.13
21594;BME280;10959;51.328;7.322;2023-05-27T04:52:33;75445.97;;;-147.06;56.62
21594;BME280;10959;51.328;7.322;2023-05-27T04:55:02;75458.25;;;-147.06;57.10
21594;BME280;10959;51.328;7.322;2023-05-27T04:57:29;75460.31;;;-147.06;57.04
21594;BME280;10959;51.328;7.322;2023-05-27T04:59:55;75470.56;;;-147.06;57.54
21594;BME280;10959;51.328;7.322;2023-05-27T05:02:44;75476.69;;;-147.06;57.55
21594;BME280;10959;51.328;7.322;2023-05-27T05:05:12;75454.16;;;-147.06;57.51
21594;BME280;10959;51.328;7.322;2023-05-27T05:07:39;75437.75;;;-147.06;57.08
21594;BME280;10959;51.328;7.322;2023-05-27T05:10:07;75413.16;;;-147.06;57.00
21594;BME280;10959;51.328;7.322;2023-05-27T05:12:34;75392.69;;;-147.06;56.43
21594;BME280;10959;51.328;7.322;2023-05-27T05:15:01;75380.38;;;-147.06;56.21
21594;BME280;10959;51.328;7.322;2023-05-27T05:17:28;75364.00;;;-147.06;56.02
21594;BME280;10959;51.328;7.322;2023-05-27T05:19:56;75347.59;;;-147.06;55.81
21594;BME280;10959;51.328;7.322;2023-05-27T05:22:22;75343.50;;;-147.06;55.66
21594;BME280;10959;51.328;7.322;2023-05-27T05:24:49;75314.81;;;-147.06;55.50
21594;BME280;10959;51.328;7.322;2023-05-27T05:27:16;75298.41;;;-147.06;55.11
21594;BME280;10959;51.328;7.322;2023-05-27T05:29:42;75290.22;;;-147.06;55.08
21594;BME280;10959;51.328;7.322;2023-05-27T05:32:09;75286.13;;;-147.06;55.14
21594;BME280;10959;51.328;7.322;2023-05-27T05:34:36;75265.63;;;-147.06;54.83
21594;BME280;10959;51.328;7.322;2023-05-27T05:37:05;75249.22;;;-147.06;54.32
21594;BME280;10959;51.328;7.322;2023-05-27T05:39:32;75243.09;;;-147.06;54.41
21594;BME280;10959;51.328;7.322;2023-05-27T05:41:58;75265.63;;;-147.06;54.16
21594;BME280;10959;51.328;7.322;2023-05-27T05:44:25;75275.88;;;-147.06;54.64
21594;BME280;10959;51.328;7.322;2023-05-27T05:46:52;75265.63;;;-147.06;54.82
21594;BME280;10959;51.328;7.322;2023-05-27T05:49:18;75265.63;;;-147.06;54.74
21594;BME280;10959;51.328;7.322;2023-05-27T05:51:45;75224.63;;;-147.06;54.62
21594;BME280;10959;51.328;7.322;2023-05-27T05:54:13;75193.91;;;-147.06;54.22
21594;BME280;10959;51.328;7.322;2023-05-27T05:56:39;75159.06;;;-147.06;53.82
21594;BME280;10959;51.328;7.322;2023-05-27T05:59:06;75138.56;;;-147.06;53.51
21594;BME280;10959;51.328;7.322;2023-05-27T06:01:32;75132.44;;;-147.06;52.75
21594;BME280;10959;51.328;7.322;2023-05-27T06:03:58;75109.88;;;-147.06;52.90
21594;BME280;10959;51.328;7.322;2023-05-27T06:06:29;75083.25;;;-147.06;52.45
21594;BME280;10959;51.328;7.322;2023-05-27T06:08:55;75077.09;;;-147.06;52.38
21594;BME280;10959;51.328;7.322;2023-05-27T06:11:23;75060.72;;;-147.06;52.18
21594;BME280;10959;51.328;7.322;2023-05-27T06:13:51;75070.94;;;-147.06;52.29
21594;BME280;10959;51.328;7.322;2023-05-27T06:16:17;75052.50;;;-147.06;52.33
21594;BME280;10959;51.328;7.322;2023-05-27T06:18:44;75036.13;;;-147.06;51.73
21594;BME280;10959;51.328;7.322;2023-05-27T06:21:11;75015.63;;;-147.06;51.82
21594;BME280;10959;51.328;7.322;2023-05-27T06:23:37;74978.75;;;-147.06;51.75
21594;BME280;10959;51.328;7.322;2023-05-27T06:26:04;74962.34;;;-147.06;51.09
21594;BME280;10959;51.328;7.322;2023-05-27T06:28:32;74933.66;;;-147.06;50.99
21594;BME280;10959;51.328;7.322;2023-05-27T06:30:59;74913.19;;;-147.06;50.98
21594;BME280;10959;51.328;7.322;2023-05-27T06:33:25;74880.38;;;-147.06;50.62
21594;BME280;10959;51.328;7.322;2023-05-27T06:35:51;74876.28;;;-147.06;49.82
21594;BME280;10959;51.328;7.322;2023-05-27T06:38:18;74851.72;;;-147.06;49.67
21594;BME280;10959;51.328;7.322;2023-05-27T06:40:44;74833.25;;;-147.06;49.49
21594;BME280;10959;51.328;7.322;2023-05-27T06:43:11;74806.63;;;-147.06;49.19
21594;BME280;10959;51.328;7.322;2023-05-27T06:45:39;74780.00;;;-147.06;49.13
21594;BME280;10959;51.328;7.322;2023-05-27T06:48:05;74753.34;;;-147.06;48.61
21594;BME280;10959;51.328;7.322;2023-05-27T06:50:32;74724.66;;;-147.06;48.48
21594;BME280;10959;51.328;7.322;2023-05-27T06:52:59;74700.09;;;-147.06;48.22
21594;BME280;10959;51.328;7.322;2023-05-27T06:55:25;74679.59;;;-147.06;47.87
21594;BME280;10959;51.328;7.322;2023-05-27T06:57:52;74679.59;;;-147.06;47.09
21594;BME280;10959;51.328;7.322;2023-05-27T07:00:18;74669.34;;;-147.06;47.71
21594;BME280;10959;51.328;7.322;2023-05-27T07:02:46;74644.75;;;-147.06;47.36
21594;BME280;10959;51.328;7.322;2023-05-27T07:05:13;74622.22;;;-147.06;46.81
21594;BME280;10959;51.328;7.322;2023-05-27T07:07:39;74614.03;;;-147.06;46.58
21594;BME280;10959;51.328;7.322;2023-05-27T07:10:07;74593.53;;;-147.06;46.85
21594;BME280;10959;51.328;7.322;2023-05-27T07:12:33;74564.84;;;-147.06;46.49
21594;BME280;10959;51.328;7.322;2023-05-27T07:15:00;74562.81;;;-147.06;46.06
21594;BME280;10959;51.328;7.322;2023-05-27T07:17:26;74562.81;;;-147.06;46.01
21594;BME280;10959;51.328;7.322;2023-05-27T07:19:54;74548.47;;;-147.06;45.96
21594;BME280;10959;51.328;7.322;2023-05-27T07:22:20;74507.47;;;-147.06;46.04
21594;BME280;10959;51.328;7.322;2023-05-27T07:24:47;74478.81;;;-147.06;45.33
21594;BME280;10959;51.328;7.322;2023-05-27T07:27:13;74480.84;;;-147.06;44.76
21594;BME280;10959;51.328;7.322;2023-05-27T07:29:44;74476.75;;;-147.06;44.56
21594;BME280;10959;51.328;7.322;2023-05-27T07:32:12;74450.13;;;-147.06;45.39
21594;BME280;10959;51.328;7.322;2023-05-27T07:34:38;74433.72;;;-147.06;44.61
21594;BME280;10959;51.328;7.322;2023-05-27T07:37:06;74409.16;;;-147.06;43.81
21594;BME280;10959;51.328;7.322;2023-05-27T07:39:33;74396.84;;;-147.06;44.23
21594;BME280;10959;51.328;7.322;2023-05-27T07:41:59;74396.84;;;-147.06;43.71
21594;BME280;10959;51.328;7.322;2023-05-27T07:44:26;74376.38;;;-147.06;43.94
21594;BME280;10959;51.328;7.322;2023-05-27T07:46:53;74364.06;;;-147.06;43.97
21594;BME280;10959;51.328;7.322;2023-05-27T07:49:19;74357.94;;;-147.06;43.80
21594;BME280;10959;51.328;7.322;2023-05-27T07:51:46;74343.59;;;-147.06;43.88
21594;BME280;10959;51.328;7.322;2023-05-27T07:54:13;74323.09;;;-147.06;43.31
21594;BME280;10959;51.328;7.322;2023-05-27T07:56:40;74288.25;;;-147.06;43.68
21594;BME280;10959;51.328;7.322;2023-05-27T07:59:06;74273.94;;;-147.06;42.79
21594;BME280;10959;51.328;7.322;2023-05-27T08:01:32;74245.25;;;-147.06;42.91
21594;BME280;10959;51.328;7.322;2023-05-27T08:03:59;74222.72;;;-147.06;42.70
21594;BME280;10959;51.328;7.322;2023-05-27T08:06:26;74212.47;;;-147.06;41.87
21594;BME280;10959;51.328;7.322;2023-05-27T08:08:52;74187.88;;;-147.06;41.94
21594;BME280;10959;51.328;7.322;2023-05-27T08:11:20;74175.59;;;-147.06;41.50
21594;BME280;10959;51.328;7.322;2023-05-27T08:13:47;74161.25;;;-147.06;41.50
21594;BME280;10959;51.328;7.322;2023-05-27T08:16:13;74138.72;;;-147.06;41.57
21594;BME280;10959;51.328;7.322;2023-05-27T08:18:40;74110.03;;;-147.06;41.36
21594;BME280;10959;51.328;7.322;2023-05-27T08:21:06;74091.59;;;-147.06;41.43
21594;BME280;10959;51.328;7.322;2023-05-27T08:23:33;74069.06;;;-147.06;41.24
21594;BME280;10959;51.328;7.322;2023-05-27T08:25:59;74040.38;;;-147.06;40.38
21594;BME280;10959;51.328;7.322;2023-05-27T08:28:27;74028.09;;;-147.06;40.10
21594;BME280;10959;51.328;7.322;2023-05-27T08:30:53;74015.78;;;-147.06;40.09
21594;BME280;10959;51.328;7.322;2023-05-27T08:33:20;74060.88;;;-147.06;40.10
21594;BME280;10959;51.328;7.322;2023-05-27T08:35:46;74042.44;;;-147.06;40.07
21594;BME280;10959;51.328;7.322;2023-05-27T08:38:13;74019.91;;;-147.06;40.01
21594;BME280;10959;51.328;7.322;2023-05-27T08:40:39;73995.31;;;-147.06;40.19
21594;BME280;10959;51.328;7.322;2023-05-27T08:43:06;73987.13;;;-147.06;39.39
21594;BME280;10959;51.328;7.322;2023-05-27T08:45:34;73958.44;;;-147.06;38.48
21594;BME280;10959;51.328;7.322;2023-05-27T08:48:01;73937.94;;;-147.06;39.51
21594;BME280;10959;51.328;7.322;2023-05-27T08:50:28;73948.19;;;-147.06;38.04
21594;BME280;10959;51.328;7.322;2023-05-27T08:52:54;73921.56;;;-147.06;38.58
21594;BME280;10959;51.328;7.322;2023-05-27T08:55:22;73931.81;;;-147.06;37.91
21594;BME280;10959;51.328;7.322;2023-05-27T08:57:51;73896.97;;;-147.06;39.03
21594;BME280;10959;51.328;7.322;2023-05-27T09:00:18;73868.31;;;-147.06;37.81
21594;BME280;10959;51.328;7.322;2023-05-27T09:02:46;73831.44;;;-147.06;38.15
21594;BME280;10959;51.328;7.322;2023-05-27T09:05:14;73804.78;;;-147.06;38.41
21594;BME280;10959;51.328;7.322;2023-05-27T09:07:42;73790.47;;;-147.06;37.20
21594;BME280;10959;51.328;7.322;2023-05-27T09:10:09;73782.25;;;-147.06;37.22
21594;BME280;10959;51.328;7.322;2023-05-27T09:12:35;73823.22;;;-147.06;37.27
21594;BME280;10959;51.328;7.322;2023-05-27T09:15:02;73843.72;;;-147.06;36.98
21594;BME280;10959;51.328;7.322;2023-05-27T09:17:30;73843.72;;;-147.06;37.20
21594;BME280;10959;51.328;7.322;2023-05-27T09:19:58;73810.94;;;-147.06;37.09
21594;BME280;10959;51.328;7.322;2023-05-27T09:22:28;73765.88;;;-147.06;37.33
21594;BME280;10959;51.328;7.322;2023-05-27T09:24:55;73753.59;;;-147.06;36.83
21594;BME280;10959;51.328;7.322;2023-05-27T09:27:25;73733.09;;;-147.06;36.63
21594;BME280;10959;51.328;7.322;2023-05-27T09:29:52;73726.97;;;-147.06;36.05
21594;BME280;10959;51.328;7.322;2023-05-27T09:32:25;73708.53;;;-147.06;36.42
21594;BME280;10959;51.328;7.322;2023-05-27T09:34:52;73700.31;;;-147.06;35.01
21594;BME280;10959;51.328;7.322;2023-05-27T09:37:24;73708.53;;;-147.06;34.79
21594;BME280;10959;51.328;7.322;2023-05-27T09:39:51;73712.63;;;-147.06;35.14
21594;BME280;10959;51.328;7.322;2023-05-27T09:42:18;73675.75;;;-147.06;36.42
21594;BME280;10959;51.328;7.322;2023-05-27T09:44:46;73686.00;;;-147.06;35.16
21594;BME280;10959;51.328;7.322;2023-05-27T09:47:16;73645.03;;;-147.06;34.99
21594;BME280;10959;51.328;7.322;2023-05-27T09:49:43;73702.38;;;-147.06;33.98
21594;BME280;10959;51.328;7.322;2023-05-27T09:52:10;73729.00;;;-147.06;34.41
21594;BME280;10959;51.328;7.322;2023-05-27T09:54:40;73704.44;;;-147.06;35.87
21594;BME280;10959;51.328;7.322;2023-05-27T09:57:07;73663.47;;;-147.06;35.79
21594;BME280;10959;51.328;7.322;2023-05-27T09:59:34;73696.22;;;-147.06;34.41
21594;BME280;10959;51.328;7.322;2023-05-27T10:02:01;73688.03;;;-147.06;34.11
21594;BME280;10959;51.328;7.322;2023-05-27T10:04:27;73702.38;;;-147.06;34.74
21594;BME280;10959;51.328;7.322;2023-05-27T10:06:55;73712.63;;;-147.06;34.33
21594;BME280;10959;51.328;7.322;2023-05-27T10:09:22;73753.59;;;-147.06;35.12
21594;BME280;10959;51.328;7.322;2023-05-27T10:11:50;73720.81;;;-147.06;35.96
21594;BME280;10959;51.328;7.322;2023-05-27T10:14:18;73647.06;;;-147.06;35.59
21594;BME280;10959;51.328;7.322;2023-05-27T10:16:51;73610.19;;;-147.06;35.27
21594;BME280;10959;51.328;7.322;2023-05-27T10:19:19;73589.72;;;-147.06;33.99
21594;BME280;10959;51.328;7.322;2023-05-27T10:21:46;73552.84;;;-147.06;34.00
21594;BME280;10959;51.328;7.322;2023-05-27T10:24:12;73561.03;;;-147.06;33.75
21594;BME280;10959;51.328;7.322;2023-05-27T10:26:40;73548.75;;;-147.06;34.18
21594;BME280;10959;51.328;7.322;2023-05-27T10:29:09;73503.69;;;-147.06;35.06
21594;BME280;10959;51.328;7.322;2023-05-27T10:31:44;73477.06;;;-147.06;34.59
21594;BME280;10959;51.328;7.322;2023-05-27T10:34:10;73438.13;;;-147.06;33.74
21594;BME280;10959;51.328;7.322;2023-05-27T10:36:37;73495.50;;;-147.06;32.82
21594;BME280;10959;51.328;7.322;2023-05-27T10:39:06;73528.25;;;-147.06;33.63
21594;BME280;10959;51.328;7.322;2023-05-27T10:41:39;73475.00;;;-147.06;33.71
21594;BME280;10959;51.328;7.322;2023-05-27T10:44:05;73450.44;;;-147.06;33.98
21594;BME280;10959;51.328;7.322;2023-05-27T10:46:39;73515.97;;;-147.06;32.98
21594;BME280;10959;51.328;7.322;2023-05-27T10:49:10;73507.78;;;-147.06;33.73
21594;BME280;10959;51.328;7.322;2023-05-27T10:51:38;73454.53;;;-147.06;34.46
21594;BME280;10959;51.328;7.322;2023-05-27T10:54:05;73421.75;;;-147.06;33.13
21594;BME280;10959;51.328;7.322;2023-05-27T10:56:32;73405.38;;;-147.06;33.72
21594;BME280;10959;51.328;7.322;2023-05-27T10:59:00;73397.19;;;-147.06;33.35
21594;BME280;10959;51.328;7.322;2023-05-27T11:01:28;73395.13;;;-147.06;33.66
21594;BME280;10959;51.328;7.322;2023-05-27T11:03:57;73384.88;;;-147.06;33.35
21594;BME280;10959;51.328;7.322;2023-05-27T11:06:24;73376.69;;;-147.06;33.34
21594;BME280;10959;51.328;7.322;2023-05-27T11:08:50;73360.31;;;-147.06;33.34
21594;BME280;10959;51.328;7.322;2023-05-27T11:11:17;73354.16;;;-147.06;33.57
21594;BME280;10959;51.328;7.322;2023-05-27T11:13:45;73315.25;;;-147.06;33.65
21594;BME280;10959;51.328;7.322;2023-05-27T11:16:13;73327.53;;;-147.06;32.64
21594;BME280;10959;51.328;7.322;2023-05-27T11:18:41;73348.00;;;-147.06;33.31
21594;BME280;10959;51.328;7.322;2023-05-27T11:21:10;73339.81;;;-147.06;34.15
21594;BME280;10959;51.328;7.322;2023-05-27T11:23:38;73309.09;;;-147.06;34.08
21594;BME280;10959;51.328;7.322;2023-05-27T11:26:11;73298.84;;;-147.06;33.14
21594;BME280;10959;51.328;7.322;2023-05-27T11:28:44;73323.44;;;-147.06;32.73
21594;BME280;10959;51.328;7.322;2023-05-27T11:31:11;73290.66;;;-147.06;33.26
21594;BME280;10959;51.328;7.322;2023-05-27T11:33:40;73302.94;;;-147.06;32.64
21594;BME280;10959;51.328;7.322;2023-05-27T11:36:10;73368.50;;;-147.06;32.82
21594;BME280;10959;51.328;7.322;2023-05-27T11:38:50;73409.47;;;-147.06;34.27
21594;BME280;10959;51.328;7.322;2023-05-27T11:41:17;73397.19;;;-147.06;33.82
21594;BME280;10959;51.328;7.322;2023-05-27T11:43:48;73384.88;;;-147.06;33.72
21594;BME280;10959;51.328;7.322;2023-05-27T11:46:15;73427.91;;;-147.06;33.64
21594;BME280;10959;51.328;7.322;2023-05-27T11:48:41;73450.44;;;-147.06;34.45
21594;BME280;10959;51.328;7.322;2023-05-27T11:51:08;73483.19;;;-147.06;34.38
21594;BME280;10959;51.328;7.322;2023-05-27T11:53:38;73446.34;;;-147.06;34.75
21594;BME280;10959;51.328;7.322;2023-05-27T11:56:06;73397.19;;;-147.06;34.71
21594;BME280;10959;51.328;7.322;2023-05-27T11:58:32;73388.97;;;-147.06;34.18
21594;BME280;10959;51.328;7.322;2023-05-27T12:00:59;73372.59;;;-147.06;33.37
21594;BME280;10959;51.328;7.322;2023-05-27T12:03:25;73432.00;;;-147.06;34.39
21594;BME280;10959;51.328;7.322;2023-05-27T12:05:52;73403.31;;;-147.06;34.53
21594;BME280;10959;51.328;7.322;2023-05-27T12:08:18;73384.88;;;-147.06;33.88
21594;BME280;10959;51.328;7.322;2023-05-27T12:10:44;73360.31;;;-147.06;34.59
21594;BME280;10959;51.328;7.322;2023-05-27T12:13:16;73376.69;;;-147.06;33.46
21594;BME280;10959;51.328;7.322;2023-05-27T12:15:43;73421.75;;;-147.06;34.15
21594;BME280;10959;51.328;7.322;2023-05-27T12:18:09;73454.53;;;-147.06;34.05
21594;BME280;10959;51.328;7.322;2023-05-27T12:20:36;73409.47;;;-147.06;34.74
21594;BME280;10959;51.328;7.322;2023-05-27T12:23:02;73419.69;;;-147.06;34.63
21594;BME280;10959;51.328;7.322;2023-05-27T12:25:28;73425.84;;;-147.06;34.29
21594;BME280;10959;51.328;7.322;2023-05-27T12:27:55;73444.28;;;-147.06;34.11
21594;BME280;10959;51.328;7.322;2023-05-27T12:30:23;73429.94;;;-147.06;35.04
21594;BME280;10959;51.328;7.322;2023-05-27T12:32:49;73405.38;;;-147.06;34.65
21594;BME280;10959;51.328;7.322;2023-05-27T12:35:16;73438.13;;;-147.06;34.42
21594;BME280;10959;51.328;7.322;2023-05-27T12:37:43;73438.13;;;-147.06;35.06
21594;BME280;10959;51.328;7.322;2023-05-27T12:40:11;73409.47;;;-147.06;34.97
21594;BME280;10959;51.328;7.322;2023-05-27T12:42:39;73405.38;;;-147.06;34.79